Time,TemperatureF,DewpointF,PressureIn,WindDirection,WindDirectionDegrees,WindSpeedMPH,WindSpeedGustMPH,Humidity,HourlyPrecipIn,Conditions,Clouds,dailyrainin,SolarRadiationWatts/m^2,SoftwareType,DateUTC
2013-03-26 01:00:00,27.0,5.0,-100.00,SSW,202,9.0,-999.0,36,-99.99,,,-99.99,0.000000,,2013-03-26 05:00:00,
2013-03-26 01:42:00,27.0,5.0,-100.00,SSW,202,9.0,-999.0,36,-99.99,,,-99.99,0.000000,,2013-03-26 05:42:00,
2013-03-26 01:52:00,27.0,5.0,-100.00,SSW,202,9.0,-999.0,36,-99.99,,,-99.99,0.000000,,2013-03-26 05:52:00,
2013-03-26 02:00:00,30.0,7.0,-100.00,SW,225,9.0,-999.0,38,-99.99,,,-99.99,0.000000,,2013-03-26 06:00:00,
2013-03-26 02:43:00,30.0,7.0,-100.00,SW,225,9.0,-999.0,38,-99.99,,,-99.99,0.000000,,2013-03-26 06:43:00,
2013-03-26 02:53:00,30.0,7.0,-100.00,SW,225,9.0,-999.0,38,-99.99,,,-99.99,0.000000,,2013-03-26 06:53:00,
2013-03-26 05:00:00,-17.0,-53.0,-100.00,SW,225,9.0,-999.0,12,-99.99,,,-99.99,0.000000,,2013-03-26 09:00:00,
2013-03-26 05:43:00,-17.0,-53.0,-100.00,SW,225,9.0,-999.0,12,-99.99,,,-99.99,0.000000,,2013-03-26 09:43:00,
2013-03-26 05:52:00,-17.0,-53.0,-100.00,SW,225,9.0,-999.0,12,-99.99,,,-99.99,0.000000,,2013-03-26 09:52:00,
2013-03-26 06:00:00,-11.0,-46.0,-100.00,SW,225,9.0,-999.0,15,-99.99,,,-99.99,0.000000,,2013-03-26 10:00:00,
2013-03-26 06:43:00,-11.0,-46.0,-100.00,SW,225,9.0,-999.0,15,-99.99,,,-99.99,0.000000,,2013-03-26 10:43:00,
2013-03-26 06:53:00,-11.0,-46.0,-100.00,SW,225,9.0,-999.0,15,-99.99,,,-99.99,0.000000,,2013-03-26 10:53:00,
2013-03-26 07:00:00,-12.0,-46.0,-100.00,SW,225,9.0,-999.0,15,-99.99,,,-99.99,0.000000,,2013-03-26 11:00:00,
2013-03-26 07:43:00,-12.0,-46.0,-100.00,SW,225,9.0,-999.0,15,-99.99,,,-99.99,0.000000,,2013-03-26 11:43:00,
2013-03-26 07:52:00,-12.0,-46.0,-100.00,SW,225,9.0,-999.0,15,-99.99,,,-99.99,0.000000,,2013-03-26 11:52:00,
2013-03-26 08:00:00,-17.0,-54.0,-100.00,SW,225,8.0,-999.0,12,-99.99,,,-99.99,4.640000,,2013-03-26 12:00:00,
2013-03-26 08:43:00,-17.0,-54.0,-100.00,SW,225,8.0,-999.0,12,-99.99,,,-99.99,4.640000,,2013-03-26 12:43:00,
2013-03-26 08:52:00,-17.0,-54.0,-100.00,SW,225,8.0,-999.0,12,-99.99,,,-99.99,4.640000,,2013-03-26 12:52:00,
2013-03-26 09:00:00,-999.0,-99.9,-100.00,SW,225,9.0,-999.0,7,-99.99,,,-99.99,41.759998,,2013-03-26 13:00:00,
2013-03-26 09:42:00,-999.0,-99.9,-100.00,SW,225,9.0,-999.0,7,-99.99,,,-99.99,41.759998,,2013-03-26 13:42:00,
2013-03-26 09:52:00,-999.0,-99.9,-100.00,SW,225,9.0,-999.0,7,-99.99,,,-99.99,41.759998,,2013-03-26 13:52:00,
2013-03-26 11:00:00,25.0,11.0,-100.00,SW,225,10.0,-999.0,52,-99.99,,,-99.99,244.759995,,2013-03-26 15:00:00,
2013-03-26 11:43:00,25.0,11.0,-100.00,SW,225,10.0,-999.0,52,-99.99,,,-99.99,244.759995,,2013-03-26 15:43:00,
2013-03-26 11:53:00,25.0,11.0,-100.00,SW,225,10.0,-999.0,52,-99.99,,,-99.99,244.759995,,2013-03-26 15:53:00,
2013-03-26 12:00:00,34.0,13.0,-100.00,SW,225,9.0,-999.0,40,-99.99,,,-99.99,351.480011,,2013-03-26 16:00:00,
2013-03-26 12:43:00,34.0,13.0,-100.00,SW,225,9.0,-999.0,40,-99.99,,,-99.99,351.480011,,2013-03-26 16:43:00,
2013-03-26 12:54:00,34.0,13.0,-100.00,SW,225,9.0,-999.0,40,-99.99,,,-99.99,351.480011,,2013-03-26 16:54:00,
2013-03-26 13:00:00,-999.0,-99.9,-100.00,WSW,247,9.0,-999.0,-999,-99.99,,,-99.99,388.600006,,2013-03-26 17:00:00,
2013-03-26 13:43:00,-999.0,-99.9,-100.00,WSW,247,9.0,-999.0,-999,-99.99,,,-99.99,388.600006,,2013-03-26 17:43:00,
2013-03-26 13:53:00,-999.0,-99.9,-100.00,WSW,247,9.0,-999.0,-999,-99.99,,,-99.99,388.600006,,2013-03-26 17:53:00,
2013-03-26 15:00:00,43.0,25.0,-100.00,West,270,11.0,-999.0,49,-99.99,,,-99.99,349.160004,,2013-03-26 19:00:00,
2013-03-26 15:42:00,43.0,25.0,-100.00,West,270,11.0,-999.0,49,-99.99,,,-99.99,349.160004,,2013-03-26 19:42:00,
2013-03-26 15:53:00,43.0,25.0,-100.00,West,270,11.0,-999.0,49,-99.99,,,-99.99,349.160004,,2013-03-26 19:53:00,
2013-03-26 16:00:00,42.0,24.0,-100.00,WSW,247,10.0,-999.0,47,-99.99,,,-99.99,183.279999,,2013-03-26 20:00:00,
2013-03-26 16:32:00,42.0,24.0,-100.00,WSW,247,10.0,-999.0,47,-99.99,,,-99.99,183.279999,,2013-03-26 20:32:00,
2013-03-26 16:43:00,42.0,24.0,-100.00,WSW,247,10.0,-999.0,47,-99.99,,,-99.99,183.279999,,2013-03-26 20:43:00,
2013-03-26 16:53:00,42.0,24.0,-100.00,WSW,247,10.0,-999.0,47,-99.99,,,-99.99,183.279999,,2013-03-26 20:53:00,
2013-03-26 17:00:00,38.0,28.0,-100.00,SW,225,8.0,-999.0,66,-99.99,,,-99.99,158.919998,,2013-03-26 21:00:00,
2013-03-26 17:43:00,38.0,28.0,-100.00,SW,225,8.0,-999.0,66,-99.99,,,-99.99,158.919998,,2013-03-26 21:43:00,
2013-03-26 17:52:00,38.0,28.0,-100.00,SW,225,8.0,-999.0,66,-99.99,,,-99.99,158.919998,,2013-03-26 21:52:00,
2013-03-26 18:00:00,39.0,28.0,-100.00,WSW,247,8.0,-999.0,64,-99.99,,,-99.99,127.599998,,2013-03-26 22:00:00,
2013-03-26 18:43:00,39.0,28.0,-100.00,WSW,247,8.0,-999.0,64,-99.99,,,-99.99,127.599998,,2013-03-26 22:43:00,
2013-03-26 18:53:00,39.0,28.0,-100.00,WSW,247,8.0,-999.0,64,-99.99,,,-99.99,127.599998,,2013-03-26 22:53:00,
2013-03-26 19:00:00,37.0,28.0,-100.00,SW,225,8.0,-999.0,69,-99.99,,,-99.99,58.000000,,2013-03-26 23:00:00,
2013-03-26 19:43:00,37.0,28.0,-100.00,SW,225,8.0,-999.0,69,-99.99,,,-99.99,58.000000,,2013-03-26 23:43:00,
2013-03-26 19:53:00,37.0,28.0,-100.00,SW,225,8.0,-999.0,69,-99.99,,,-99.99,58.000000,,2013-03-26 23:53:00,
2013-03-26 21:00:00,36.0,29.0,-100.00,SSW,202,7.0,-999.0,75,-99.99,,,-99.99,0.000000,,2013-03-27 01:00:00,
2013-03-26 21:43:00,36.0,29.0,-100.00,SSW,202,7.0,-999.0,75,-99.99,,,-99.99,0.000000,,2013-03-27 01:43:00,
2013-03-26 21:53:00,36.0,29.0,-100.00,SSW,202,7.0,-999.0,75,-99.99,,,-99.99,0.000000,,2013-03-27 01:53:00,
2013-03-26 22:00:00,35.0,28.0,-100.00,SSW,202,7.0,-999.0,75,-99.99,,,-99.99,0.000000,,2013-03-27 02:00:00,
2013-03-26 22:43:00,35.0,28.0,-100.00,SSW,202,7.0,-999.0,75,-99.99,,,-99.99,0.000000,,2013-03-27 02:43:00,
2013-03-26 22:53:00,35.0,28.0,-100.00,SSW,202,7.0,-999.0,75,-99.99,,,-99.99,0.000000,,2013-03-27 02:53:00,
2013-03-26 23:00:00,35.0,28.0,-100.00,SSW,202,7.0,-999.0,73,-99.99,,,-99.99,0.000000,,2013-03-27 03:00:00,
2013-03-26 23:43:00,35.0,28.0,-100.00,SSW,202,7.0,-999.0,73,-99.99,,,-99.99,0.000000,,2013-03-27 03:43:00,
2013-03-26 23:53:00,35.0,28.0,-100.00,SSW,202,7.0,-999.0,73,-99.99,,,-99.99,0.000000,,2013-03-27 03:53:00,